createdAt,value
2022-09-25T00:00:02.280Z,11.33
2022-09-25T00:03:07.779Z,11.11
2022-09-25T00:06:14.780Z,11.25
2022-09-25T00:09:21.615Z,11.11
2022-09-25T00:12:24.753Z,10.88
2022-09-25T00:15:28.014Z,11.02
2022-09-25T00:18:48.654Z,10.95
2022-09-25T00:21:52.905Z,10.94
2022-09-25T00:24:57.990Z,11.01
2022-09-25T00:28:01.090Z,10.94
2022-09-25T00:31:05.515Z,10.97
2022-09-25T00:34:09.020Z,10.85
2022-09-25T00:37:12.361Z,10.88
2022-09-25T00:40:17.313Z,11.04
2022-09-25T00:43:37.636Z,10.93
2022-09-25T00:46:43.864Z,10.89
2022-09-25T00:49:48.052Z,10.99
2022-09-25T00:52:54.556Z,10.95
2022-09-25T00:56:01.080Z,10.88
2022-09-25T00:59:04.680Z,11.06
2022-09-25T01:02:14.194Z,10.90
2022-09-25T01:05:19.649Z,10.85
2022-09-25T01:08:26.526Z,10.71
2022-09-25T01:11:32.076Z,10.91
2022-09-25T01:14:35.285Z,10.86
2022-09-25T01:17:44.685Z,10.79
2022-09-25T01:21:06.230Z,10.82
2022-09-25T01:24:36.384Z,10.76
2022-09-25T01:27:52.512Z,10.77
2022-09-25T01:31:03.303Z,10.78
2022-09-25T01:34:15.268Z,10.86
2022-09-25T01:37:25.483Z,10.87
2022-09-25T01:40:33.898Z,10.81
2022-09-25T01:43:41.035Z,10.89
2022-09-25T01:46:50.030Z,10.74
2022-09-25T01:49:59.116Z,10.72
2022-09-25T01:53:09.161Z,10.79
2022-09-25T01:56:20.324Z,10.91
2022-09-25T01:59:32.083Z,10.74
2022-09-25T02:02:43.152Z,10.70
2022-09-25T02:05:50.556Z,10.96
2022-09-25T02:08:59.158Z,10.74
2022-09-25T02:12:08.471Z,10.56
2022-09-25T02:15:15.841Z,10.63
2022-09-25T02:18:40.082Z,10.86
2022-09-25T02:21:48.921Z,10.62
2022-09-25T02:24:59.089Z,10.63
2022-09-25T02:28:03.207Z,10.62
2022-09-25T02:31:11.567Z,10.71
2022-09-25T02:34:16.652Z,10.66
2022-09-25T02:37:20.410Z,10.70
2022-09-25T02:40:30.134Z,10.73
2022-09-25T02:43:41.708Z,10.67
2022-09-25T02:46:55.139Z,10.57
2022-09-25T02:50:06.638Z,10.56
2022-09-25T02:53:16.737Z,10.56
2022-09-25T02:56:26.951Z,10.52
2022-09-25T02:59:35.547Z,10.67
2022-09-25T03:02:40.399Z,10.52
2022-09-25T03:05:46.117Z,10.54
2022-09-25T03:08:54.244Z,10.42
2022-09-25T03:11:57.627Z,10.72
2022-09-25T03:15:00.685Z,10.50
2022-09-25T03:18:05.547Z,9.99
2022-09-25T03:21:10.823Z,10.45
2022-09-25T03:24:14.625Z,10.52
2022-09-25T03:27:17.719Z,10.52
2022-09-25T03:30:20.856Z,10.58
2022-09-25T03:35:08.854Z,10.45
2022-09-25T03:38:12.516Z,10.77
2022-09-25T03:41:20.172Z,10.88
2022-09-25T03:44:23.502Z,10.44
2022-09-25T03:47:26.680Z,10.55
2022-09-25T03:50:31.105Z,10.54
2022-09-25T03:53:34.798Z,10.89
2022-09-25T03:56:38.336Z,10.87
2022-09-25T03:59:41.657Z,10.54
2022-09-25T04:02:45.239Z,10.55
2022-09-25T04:05:50.689Z,10.53
2022-09-25T04:08:54.830Z,10.48
2022-09-25T04:11:57.879Z,10.43
2022-09-25T04:15:02.130Z,10.48
2022-09-25T04:18:06.326Z,10.65
2022-09-25T04:21:13.181Z,10.44
2022-09-25T04:24:33.917Z,10.35
2022-09-25T04:27:37.736Z,10.34
2022-09-25T04:30:40.864Z,10.50
2022-09-25T04:33:49.015Z,10.33
2022-09-25T04:36:53.388Z,10.25
2022-09-25T04:39:57.983Z,10.31
2022-09-25T04:43:02.803Z,10.33
2022-09-25T04:46:08.340Z,10.27
2022-09-25T04:49:11.716Z,10.20
2022-09-25T04:52:16.959Z,10.00
2022-09-25T04:55:22.095Z,10.13
2022-09-25T04:58:25.223Z,10.44
2022-09-25T05:01:28.580Z,10.25
2022-09-25T05:04:32.079Z,10.14
2022-09-25T05:07:36.579Z,10.10
2022-09-25T05:10:53.551Z,10.20
2022-09-25T05:13:57.157Z,10.29
2022-09-25T05:17:01.262Z,10.21
2022-09-25T05:20:04.900Z,10.32
2022-09-25T05:23:09.757Z,10.22
2022-09-25T05:26:13.231Z,10.37
2022-09-25T05:29:16.577Z,10.49
2022-09-25T05:32:19.755Z,10.41
2022-09-25T05:35:24.585Z,10.25
2022-09-25T05:38:29.844Z,10.71
2022-09-25T05:41:34.767Z,10.33
2022-09-25T05:44:39.615Z,10.46
2022-09-25T05:47:43.901Z,10.35
2022-09-25T05:50:52.348Z,10.58
2022-09-25T05:53:57.361Z,10.37
2022-09-25T05:57:00.554Z,10.39
2022-09-25T06:00:06.046Z,10.34
2022-09-25T06:03:15.651Z,10.47
2022-09-25T06:06:22.423Z,10.60
2022-09-25T06:09:29.842Z,10.57
2022-09-25T06:12:33.134Z,10.66
2022-09-25T06:15:41.923Z,10.69
2022-09-25T06:18:45.364Z,10.80
2022-09-25T06:21:48.639Z,10.51
2022-09-25T06:24:53.322Z,10.76
2022-09-25T06:28:00.297Z,10.92
2022-09-25T06:31:04.687Z,10.94
2022-09-25T06:34:10.541Z,10.85
2022-09-25T06:37:13.979Z,10.89
2022-09-25T06:40:18.972Z,10.86
2022-09-25T06:43:22.315Z,11.00
2022-09-25T06:46:25.809Z,10.73
2022-09-25T06:49:29.272Z,10.88
2022-09-25T06:52:32.729Z,11.12
2022-09-25T06:55:37.696Z,11.20
2022-09-25T06:58:41.108Z,11.22
2022-09-25T07:01:47.700Z,11.15
2022-09-25T07:04:51.575Z,11.21
2022-09-25T07:07:55.854Z,11.22
2022-09-25T07:11:01.588Z,11.22
2022-09-25T07:14:04.900Z,11.34
2022-09-25T07:17:08.207Z,11.39
2022-09-25T07:20:14.117Z,11.36
2022-09-25T07:23:18.763Z,11.16
2022-09-25T07:26:25.748Z,11.46
2022-09-25T07:29:29.511Z,11.47
2022-09-25T07:32:33.161Z,11.45
2022-09-25T07:35:37.898Z,11.48
2022-09-25T07:38:41.530Z,11.62
2022-09-25T07:41:46.513Z,11.74
2022-09-25T07:44:50.200Z,11.74
2022-09-25T07:47:57.281Z,11.77
2022-09-25T07:51:01.667Z,11.93
2022-09-25T07:54:05.540Z,11.80
2022-09-25T07:57:11.105Z,11.87
2022-09-25T08:00:15.147Z,12.08
2022-09-25T08:03:21.438Z,12.02
2022-09-25T08:06:24.971Z,12.09
2022-09-25T08:09:28.406Z,12.07
2022-09-25T08:12:33.370Z,11.96
2022-09-25T08:15:37.203Z,12.05
2022-09-25T08:18:41.904Z,12.04
2022-09-25T08:21:47.407Z,12.32
2022-09-25T08:24:50.875Z,12.33
2022-09-25T08:27:55.784Z,12.49
2022-09-25T08:31:00.246Z,12.48
2022-09-25T08:34:28.117Z,12.80
2022-09-25T08:37:27.221Z,12.60
2022-09-25T08:40:33.177Z,12.66
2022-09-25T08:43:57.051Z,12.32
2022-09-25T08:47:22.349Z,12.52
2022-09-25T08:50:27.110Z,12.46
2022-09-25T08:53:30.462Z,12.39
2022-09-25T08:56:36.443Z,12.74
2022-09-25T08:59:44.939Z,12.42
2022-09-25T09:02:55.555Z,12.46
2022-09-25T09:06:03.914Z,12.85
2022-09-25T09:09:12.687Z,12.58
2022-09-25T09:12:20.734Z,12.75
2022-09-25T09:15:29.046Z,12.78
2022-09-25T09:18:37.255Z,12.84
2022-09-25T09:21:47.092Z,12.95
2022-09-25T09:24:56.394Z,12.96
2022-09-25T09:28:22.101Z,13.05
2022-09-25T09:35:18.938Z,12.92
2022-09-25T09:38:31.365Z,13.02
2022-09-25T09:41:45.844Z,12.96
2022-09-25T09:45:00.161Z,13.00
2022-09-25T09:48:13.523Z,13.05
2022-09-25T09:51:24.060Z,12.98
2022-09-25T09:54:52.279Z,13.20
2022-09-25T09:57:58.494Z,13.27
2022-09-25T10:01:22.175Z,13.32
2022-09-25T10:04:32.928Z,13.40
2022-09-25T10:07:41.495Z,13.19
2022-09-25T10:10:47.420Z,13.31
2022-09-25T10:13:51.312Z,13.62
2022-09-25T10:16:55.143Z,13.88
2022-09-25T10:20:02.519Z,13.74
2022-09-25T10:23:15.420Z,13.88
2022-09-25T10:26:27.552Z,13.87
2022-09-25T10:29:30.841Z,14.08
2022-09-25T10:32:35.932Z,14.05
2022-09-25T10:35:45.408Z,13.92
2022-09-25T10:39:01.664Z,14.19
2022-09-25T10:42:34.163Z,14.22
2022-09-25T10:45:40.730Z,14.05
2022-09-25T10:49:01.691Z,14.02
2022-09-25T10:52:07.405Z,14.49
2022-09-25T10:55:20.768Z,14.35
2022-09-25T10:58:30.481Z,14.46
2022-09-25T11:01:36.412Z,14.36
2022-09-25T11:04:42.778Z,14.35
2022-09-25T11:07:55.198Z,14.69
2022-09-25T11:11:02.465Z,14.69
2022-09-25T11:14:08.627Z,14.80
2022-09-25T11:17:32.070Z,14.95
2022-09-25T11:20:36.771Z,15.28
2022-09-25T11:23:46.655Z,14.59
2022-09-25T11:26:58.570Z,14.54
2022-09-25T11:30:07.141Z,15.01
2022-09-25T11:33:18.857Z,15.02
2022-09-25T11:36:29.627Z,15.10
2022-09-25T11:39:57.151Z,14.93
2022-09-25T11:43:07.157Z,14.84
2022-09-25T11:46:20.785Z,14.73
2022-09-25T11:49:28.438Z,14.55
2022-09-25T11:52:40.221Z,14.54
2022-09-25T11:56:07.779Z,14.63
2022-09-25T11:59:38.355Z,14.59
2022-09-25T12:03:04.883Z,14.18
2022-09-25T12:06:45.302Z,13.81
2022-09-25T12:10:04.223Z,13.73
2022-09-25T12:13:14.172Z,13.86
2022-09-25T12:16:24.021Z,13.74
2022-09-25T12:19:37.066Z,13.98
2022-09-25T12:22:50.811Z,13.82
2022-09-25T12:26:11.247Z,14.09
2022-09-25T12:29:32.868Z,14.27
2022-09-25T12:32:52.066Z,14.01
2022-09-25T12:36:01.632Z,14.45
2022-09-25T12:39:22.034Z,14.44
2022-09-25T12:42:31.435Z,14.72
2022-09-25T12:45:40.173Z,14.25
2022-09-25T12:48:49.354Z,13.83
2022-09-25T12:51:57.288Z,14.20
2022-09-25T12:55:05.345Z,13.94
2022-09-25T12:58:20.235Z,14.18
2022-09-25T13:01:28.817Z,14.17
2022-09-25T13:04:43.824Z,14.27
2022-09-25T13:07:51.012Z,14.56
2022-09-25T13:10:58.827Z,14.57
2022-09-25T13:14:04.245Z,14.47
2022-09-25T13:17:12.030Z,14.65
2022-09-25T13:20:48.212Z,14.59
2022-09-25T13:23:53.378Z,14.57
2022-09-25T13:27:03.347Z,14.56
2022-09-25T13:30:07.802Z,14.05
2022-09-25T13:33:22.260Z,12.94
2022-09-25T13:36:47.608Z,12.13
2022-09-25T13:40:09.178Z,11.95
2022-09-25T13:43:21.526Z,12.27
2022-09-25T13:46:27.200Z,12.29
2022-09-25T13:49:35.428Z,12.24
2022-09-25T13:53:15.534Z,12.31
2022-09-25T13:56:45.809Z,12.35
2022-09-25T14:00:03.170Z,12.54
2022-09-25T14:03:34.029Z,11.87
2022-09-25T14:06:39.510Z,12.38
2022-09-25T14:09:48.567Z,12.26
2022-09-25T14:12:52.947Z,12.52
2022-09-25T14:15:59.986Z,12.57
2022-09-25T14:19:05.379Z,12.37
2022-09-25T14:22:13.656Z,12.44
2022-09-25T14:25:32.961Z,12.55
2022-09-25T14:28:45.631Z,12.54
2022-09-25T14:32:01.324Z,12.62
2022-09-25T14:35:25.312Z,12.55
2022-09-25T14:38:55.545Z,12.74
2022-09-25T14:42:29.114Z,12.60
2022-09-25T14:45:57.631Z,12.59
2022-09-25T14:49:10.927Z,12.75
2022-09-25T14:52:17.487Z,12.62
2022-09-25T14:55:24.572Z,12.71
2022-09-25T14:58:32.463Z,12.73
2022-09-25T15:01:35.868Z,12.57
2022-09-25T15:04:39.048Z,12.65
2022-09-25T15:07:43.512Z,12.63
2022-09-25T15:10:46.718Z,12.49
2022-09-25T15:13:51.130Z,12.43
2022-09-25T15:17:11.844Z,12.75
2022-09-25T15:20:19.494Z,12.68
2022-09-25T15:23:23.746Z,12.69
2022-09-25T15:26:28.290Z,12.61
2022-09-25T15:29:37.226Z,12.48
2022-09-25T15:35:18.199Z,12.46
2022-09-25T15:38:21.279Z,12.57
2022-09-25T15:41:24.918Z,12.64
2022-09-25T15:44:28.364Z,12.34
2022-09-25T15:47:53.935Z,12.32
2022-09-25T15:51:01.613Z,12.46
2022-09-25T15:54:24.243Z,12.42
2022-09-25T15:57:30.573Z,12.51
2022-09-25T16:00:51.589Z,12.40
2022-09-25T16:04:12.939Z,12.37
2022-09-25T16:07:29.714Z,12.38
2022-09-25T16:10:34.424Z,12.53
2022-09-25T16:13:43.544Z,12.47
2022-09-25T16:16:49.826Z,12.18
2022-09-25T16:20:01.793Z,12.40
2022-09-25T16:23:08.692Z,12.29
2022-09-25T16:26:22.157Z,12.15
2022-09-25T16:29:28.186Z,12.16
2022-09-25T16:32:31.837Z,12.15
2022-09-25T16:36:05.259Z,12.18
2022-09-25T16:39:15.899Z,12.17
2022-09-25T16:42:35.589Z,12.38
2022-09-25T16:45:58.989Z,12.11
2022-09-25T16:49:05.957Z,12.12
2022-09-25T16:52:09.527Z,12.14
2022-09-25T16:55:23.482Z,12.28
2022-09-25T16:58:27.076Z,12.10
2022-09-25T17:01:31.058Z,12.05
2022-09-25T17:04:35.995Z,12.32
2022-09-25T17:07:39.374Z,12.24
2022-09-25T17:10:45.016Z,12.02
2022-09-25T17:13:49.307Z,12.14
2022-09-25T17:16:54.583Z,11.94
2022-09-25T17:20:05.554Z,11.96
2022-09-25T17:23:11.507Z,12.05
2022-09-25T17:26:21.956Z,12.02
2022-09-25T17:29:25.440Z,12.09
2022-09-25T17:32:29.748Z,11.92
2022-09-25T17:35:43.729Z,12.06
2022-09-25T17:38:47.427Z,11.62
2022-09-25T17:41:52.471Z,11.50
2022-09-25T17:44:57.602Z,11.47
2022-09-25T17:48:02.045Z,11.44
2022-09-25T17:51:14.109Z,11.70
2022-09-25T17:54:18.219Z,11.52
2022-09-25T17:57:23.115Z,11.47
2022-09-25T18:00:26.820Z,11.61
2022-09-25T18:03:31.123Z,11.47
2022-09-25T18:06:34.699Z,11.51
2022-09-25T18:09:38.039Z,11.34
2022-09-25T18:12:42.868Z,11.31
2022-09-25T18:15:48.938Z,11.68
2022-09-25T18:19:09.512Z,11.52
2022-09-25T18:22:19.439Z,11.30
2022-09-25T18:25:23.081Z,11.39
2022-09-25T18:28:29.022Z,11.34
2022-09-25T18:31:32.727Z,11.32
2022-09-25T18:34:36.028Z,11.31
2022-09-25T18:37:39.786Z,11.24
2022-09-25T18:40:43.252Z,11.30
2022-09-25T18:43:47.867Z,10.85
2022-09-25T18:46:51.401Z,11.05
2022-09-25T18:49:55.092Z,11.25
2022-09-25T18:52:58.656Z,11.09
2022-09-25T18:56:02.421Z,11.00
2022-09-25T18:59:07.661Z,11.07
2022-09-25T19:02:20.638Z,11.07
2022-09-25T19:05:25.837Z,10.94
2022-09-25T19:08:29.572Z,10.94
2022-09-25T19:11:33.061Z,10.96
2022-09-25T19:14:37.610Z,10.98
2022-09-25T19:17:41.177Z,10.82
2022-09-25T19:20:49.129Z,10.94
2022-09-25T19:23:52.568Z,10.83
2022-09-25T19:26:55.759Z,10.89
2022-09-25T19:30:00.725Z,10.90
2022-09-25T19:33:04.065Z,10.79
2022-09-25T19:36:09.209Z,10.82
2022-09-25T19:39:12.950Z,10.76
2022-09-25T19:42:16.608Z,10.76
2022-09-25T19:45:22.174Z,10.98
2022-09-25T19:48:25.811Z,10.72
2022-09-25T19:51:29.562Z,10.68
2022-09-25T19:54:32.977Z,10.69
2022-09-25T19:57:36.731Z,10.65
2022-09-25T20:00:42.877Z,10.53
2022-09-25T20:03:46.549Z,10.39
2022-09-25T20:06:49.894Z,10.71
2022-09-25T20:09:53.274Z,10.65
2022-09-25T20:12:56.764Z,10.46
2022-09-25T20:16:09.910Z,10.89
2022-09-25T20:19:13.494Z,10.95
2022-09-25T20:22:16.727Z,10.64
2022-09-25T20:25:20.341Z,10.50
2022-09-25T20:28:23.753Z,10.56
2022-09-25T20:31:29.906Z,10.94
2022-09-25T20:34:33.201Z,10.63
2022-09-25T20:37:36.830Z,10.80
2022-09-25T20:40:40.480Z,10.57
2022-09-25T20:43:44.291Z,10.51
2022-09-25T20:46:48.879Z,10.83
2022-09-25T20:49:52.087Z,10.67
2022-09-25T20:52:56.669Z,10.64
2022-09-25T20:56:05.133Z,10.51
2022-09-25T20:59:08.337Z,10.48
2022-09-25T21:02:13.084Z,10.59
2022-09-25T21:05:16.487Z,10.52
2022-09-25T21:08:20.009Z,10.56
2022-09-25T21:11:24.317Z,10.64
2022-09-25T21:14:29.488Z,10.39
2022-09-25T21:17:34.223Z,10.61
2022-09-25T21:20:38.156Z,10.55
2022-09-25T21:23:42.492Z,10.67
2022-09-25T21:26:46.576Z,10.65
2022-09-25T21:29:50.049Z,10.86
2022-09-25T21:35:08.565Z,10.63
2022-09-25T21:38:11.981Z,10.84
2022-09-25T21:41:18.637Z,10.67
2022-09-25T21:44:24.711Z,10.56
2022-09-25T21:47:29.281Z,10.61
2022-09-25T21:50:34.490Z,10.67
2022-09-25T21:53:38.086Z,10.77
2022-09-25T21:56:43.225Z,10.75
2022-09-25T21:59:46.553Z,10.73
2022-09-25T22:02:50.238Z,10.83
2022-09-25T22:06:01.186Z,10.61
2022-09-25T22:09:06.544Z,10.69
2022-09-25T22:12:09.785Z,10.99
2022-09-25T22:15:13.162Z,10.83
2022-09-25T22:18:16.508Z,10.75
2022-09-25T22:21:27.886Z,10.70
2022-09-25T22:24:31.448Z,10.70
2022-09-25T22:27:34.879Z,10.88
2022-09-25T22:30:38.241Z,10.77
2022-09-25T22:33:41.835Z,10.62
2022-09-25T22:36:47.234Z,10.75
2022-09-25T22:39:50.692Z,10.77
2022-09-25T22:42:53.844Z,10.44
2022-09-25T22:45:57.545Z,10.75
2022-09-25T22:49:01.100Z,10.76
2022-09-25T22:52:06.015Z,10.71
2022-09-25T22:55:09.927Z,10.90
2022-09-25T22:58:13.324Z,10.78
2022-09-25T23:01:18.923Z,10.81
2022-09-25T23:04:27.015Z,10.72
2022-09-25T23:07:31.924Z,10.58
2022-09-25T23:11:02.582Z,10.55
2022-09-25T23:14:00.574Z,10.75
2022-09-25T23:17:03.981Z,10.53
2022-09-25T23:20:08.822Z,10.45
2022-09-25T23:23:13.770Z,10.51
2022-09-25T23:26:17.001Z,10.49
2022-09-25T23:29:21.893Z,10.56
2022-09-25T23:32:25.756Z,10.30
2022-09-25T23:35:29.151Z,10.31
2022-09-25T23:38:34.350Z,10.38
2022-09-25T23:41:39.663Z,10.36
2022-09-25T23:44:42.883Z,10.36
2022-09-25T23:47:46.091Z,10.20
2022-09-25T23:50:51.193Z,10.08
2022-09-25T23:53:57.697Z,10.17
2022-09-25T23:57:01.102Z,10.19
